sensor_id;sensor_type;location;lat;lon;timestamp;P1;durP1;ratioP1;P2;durP2;ratioP2
79064;SDS011;68469;51.502;7.462;2023-07-29T00:01:11;8.35;;;6.28;;
79064;SDS011;68469;51.502;7.462;2023-07-29T00:03:37;8.68;;;6.78;;
79064;SDS011;68469;51.502;7.462;2023-07-29T00:08:31;9.75;;;6.05;;
79064;SDS011;68469;51.502;7.462;2023-07-29T00:10:56;7.75;;;6.15;;
79064;SDS011;68469;51.502;7.462;2023-07-29T00:13:22;7.32;;;6.18;;
79064;SDS011;68469;51.502;7.462;2023-07-29T00:15:47;5.68;;;5.15;;
79064;SDS011;68469;51.502;7.462;2023-07-29T00:18:13;6.40;;;5.80;;
79064;SDS011;68469;51.502;7.462;2023-07-29T00:20:39;6.90;;;5.55;;
79064;SDS011;68469;51.502;7.462;2023-07-29T00:23:04;6.35;;;5.75;;
79064;SDS011;68469;51.502;7.462;2023-07-29T00:25:30;5.78;;;5.18;;
79064;SDS011;68469;51.502;7.462;2023-07-29T00:27:55;7.85;;;5.75;;
79064;SDS011;68469;51.502;7.462;2023-07-29T00:30:21;12.25;;;6.38;;
79064;SDS011;68469;51.502;7.462;2023-07-29T00:32:47;6.35;;;5.60;;
79064;SDS011;68469;51.502;7.462;2023-07-29T00:35:12;5.88;;;5.32;;
79064;SDS011;68469;51.502;7.462;2023-07-29T00:37:38;6.00;;;5.45;;
79064;SDS011;68469;51.502;7.462;2023-07-29T00:40:06;6.32;;;5.72;;
79064;SDS011;68469;51.502;7.462;2023-07-29T00:42:41;6.53;;;5.90;;
79064;SDS011;68469;51.502;7.462;2023-07-29T00:45:08;5.82;;;5.32;;
79064;SDS011;68469;51.502;7.462;2023-07-29T00:47:34;6.47;;;5.88;;
79064;SDS011;68469;51.502;7.462;2023-07-29T00:50:00;7.20;;;6.50;;
79064;SDS011;68469;51.502;7.462;2023-07-29T00:52:28;6.38;;;5.78;;
79064;SDS011;68469;51.502;7.462;2023-07-29T00:54:54;6.45;;;5.85;;
79064;SDS011;68469;51.502;7.462;2023-07-29T00:57:20;6.25;;;5.65;;
79064;SDS011;68469;51.502;7.462;2023-07-29T00:59:46;7.10;;;6.45;;
79064;SDS011;68469;51.502;7.462;2023-07-29T01:02:12;7.53;;;6.72;;
79064;SDS011;68469;51.502;7.462;2023-07-29T01:04:38;6.53;;;5.93;;
79064;SDS011;68469;51.502;7.462;2023-07-29T01:07:07;7.03;;;6.32;;
79064;SDS011;68469;51.502;7.462;2023-07-29T01:09:57;8.02;;;6.43;;
79064;SDS011;68469;51.502;7.462;2023-07-29T01:12:50;8.52;;;6.80;;
79064;SDS011;68469;51.502;7.462;2023-07-29T01:15:16;7.78;;;6.72;;
79064;SDS011;68469;51.502;7.462;2023-07-29T01:17:59;8.02;;;7.22;;
79064;SDS011;68469;51.502;7.462;2023-07-29T01:20:32;6.90;;;6.30;;
79064;SDS011;68469;51.502;7.462;2023-07-29T01:22:58;6.95;;;6.00;;
79064;SDS011;68469;51.502;7.462;2023-07-29T01:25:24;7.35;;;6.05;;
79064;SDS011;68469;51.502;7.462;2023-07-29T01:27:50;10.30;;;5.95;;
79064;SDS011;68469;51.502;7.462;2023-07-29T01:30:20;7.07;;;6.38;;
79064;SDS011;68469;51.502;7.462;2023-07-29T01:32:52;6.88;;;6.05;;
79064;SDS011;68469;51.502;7.462;2023-07-29T01:35:32;6.40;;;5.80;;
79064;SDS011;68469;51.502;7.462;2023-07-29T01:38:17;6.07;;;5.57;;
79064;SDS011;68469;51.502;7.462;2023-07-29T01:43:10;7.32;;;5.22;;
79064;SDS011;68469;51.502;7.462;2023-07-29T01:45:37;5.38;;;4.88;;
79064;SDS011;68469;51.502;7.462;2023-07-29T01:48:04;5.55;;;5.03;;
79064;SDS011;68469;51.502;7.462;2023-07-29T01:50:30;7.35;;;5.38;;
79064;SDS011;68469;51.502;7.462;2023-07-29T01:52:57;8.90;;;5.20;;
79064;SDS011;68469;51.502;7.462;2023-07-29T01:55:23;6.00;;;5.47;;
79064;SDS011;68469;51.502;7.462;2023-07-29T01:57:48;5.78;;;4.68;;
79064;SDS011;68469;51.502;7.462;2023-07-29T02:00:14;6.50;;;4.90;;
79064;SDS011;68469;51.502;7.462;2023-07-29T02:02:40;5.40;;;4.90;;
79064;SDS011;68469;51.502;7.462;2023-07-29T02:05:06;5.80;;;4.88;;
79064;SDS011;68469;51.502;7.462;2023-07-29T02:07:32;6.70;;;4.53;;
79064;SDS011;68469;51.502;7.462;2023-07-29T02:09:57;5.25;;;4.78;;
79064;SDS011;68469;51.502;7.462;2023-07-29T02:12:23;5.35;;;4.80;;
79064;SDS011;68469;51.502;7.462;2023-07-29T02:14:49;7.13;;;4.70;;
79064;SDS011;68469;51.502;7.462;2023-07-29T02:17:15;7.18;;;5.28;;
79064;SDS011;68469;51.502;7.462;2023-07-29T02:19:40;6.72;;;4.70;;
79064;SDS011;68469;51.502;7.462;2023-07-29T02:22:06;7.10;;;5.30;;
79064;SDS011;68469;51.502;7.462;2023-07-29T02:24:32;5.13;;;4.60;;
79064;SDS011;68469;51.502;7.462;2023-07-29T02:26:57;6.07;;;4.93;;
79064;SDS011;68469;51.502;7.462;2023-07-29T02:29:23;10.52;;;5.03;;
79064;SDS011;68469;51.502;7.462;2023-07-29T02:31:50;5.05;;;4.63;;
79064;SDS011;68469;51.502;7.462;2023-07-29T02:34:15;5.13;;;4.63;;
79064;SDS011;68469;51.502;7.462;2023-07-29T02:36:41;4.90;;;4.35;;
79064;SDS011;68469;51.502;7.462;2023-07-29T02:39:07;5.93;;;4.70;;
79064;SDS011;68469;51.502;7.462;2023-07-29T02:41:32;4.60;;;4.20;;
79064;SDS011;68469;51.502;7.462;2023-07-29T02:43:58;4.53;;;4.13;;
79064;SDS011;68469;51.502;7.462;2023-07-29T02:46:24;5.32;;;3.78;;
79064;SDS011;68469;51.502;7.462;2023-07-29T02:48:50;4.68;;;4.20;;
79064;SDS011;68469;51.502;7.462;2023-07-29T02:51:16;3.97;;;3.58;;
79064;SDS011;68469;51.502;7.462;2023-07-29T02:53:41;5.20;;;3.80;;
79064;SDS011;68469;51.502;7.462;2023-07-29T02:56:07;6.13;;;4.53;;
79064;SDS011;68469;51.502;7.462;2023-07-29T02:58:35;4.60;;;3.60;;
79064;SDS011;68469;51.502;7.462;2023-07-29T03:01:04;4.38;;;3.67;;
79064;SDS011;68469;51.502;7.462;2023-07-29T03:03:31;4.57;;;3.97;;
79064;SDS011;68469;51.502;7.462;2023-07-29T03:06:03;6.07;;;3.72;;
79064;SDS011;68469;51.502;7.462;2023-07-29T03:08:31;4.25;;;3.50;;
79064;SDS011;68469;51.502;7.462;2023-07-29T03:10:57;3.95;;;3.55;;
79064;SDS011;68469;51.502;7.462;2023-07-29T03:13:23;4.63;;;4.15;;
79064;SDS011;68469;51.502;7.462;2023-07-29T03:15:48;4.35;;;3.70;;
79064;SDS011;68469;51.502;7.462;2023-07-29T03:18:14;9.10;;;4.30;;
79064;SDS011;68469;51.502;7.462;2023-07-29T03:20:40;4.45;;;4.00;;
79064;SDS011;68469;51.502;7.462;2023-07-29T03:23:06;5.25;;;3.67;;
79064;SDS011;68469;51.502;7.462;2023-07-29T03:25:32;5.28;;;4.50;;
79064;SDS011;68469;51.502;7.462;2023-07-29T03:27:58;4.70;;;4.28;;
79064;SDS011;68469;51.502;7.462;2023-07-29T03:30:23;6.32;;;4.05;;
79064;SDS011;68469;51.502;7.462;2023-07-29T03:32:49;5.43;;;4.20;;
79064;SDS011;68469;51.502;7.462;2023-07-29T03:35:15;6.15;;;4.85;;
79064;SDS011;68469;51.502;7.462;2023-07-29T03:37:41;7.65;;;5.45;;
79064;SDS011;68469;51.502;7.462;2023-07-29T03:40:07;6.57;;;5.13;;
79064;SDS011;68469;51.502;7.462;2023-07-29T03:42:34;6.07;;;5.47;;
79064;SDS011;68469;51.502;7.462;2023-07-29T03:45:00;7.95;;;5.65;;
79064;SDS011;68469;51.502;7.462;2023-07-29T03:47:25;5.60;;;5.05;;
79064;SDS011;68469;51.502;7.462;2023-07-29T03:49:51;5.95;;;5.32;;
79064;SDS011;68469;51.502;7.462;2023-07-29T03:52:17;7.65;;;5.95;;
79064;SDS011;68469;51.502;7.462;2023-07-29T03:54:42;6.10;;;5.60;;
79064;SDS011;68469;51.502;7.462;2023-07-29T03:57:08;6.30;;;5.70;;
79064;SDS011;68469;51.502;7.462;2023-07-29T03:59:33;7.07;;;5.78;;
79064;SDS011;68469;51.502;7.462;2023-07-29T04:01:59;8.40;;;5.70;;
79064;SDS011;68469;51.502;7.462;2023-07-29T04:04:24;8.05;;;5.55;;
79064;SDS011;68469;51.502;7.462;2023-07-29T04:06:50;6.38;;;5.72;;
79064;SDS011;68469;51.502;7.462;2023-07-29T04:09:16;7.10;;;6.25;;
79064;SDS011;68469;51.502;7.462;2023-07-29T04:11:41;8.90;;;6.18;;
79064;SDS011;68469;51.502;7.462;2023-07-29T04:14:07;8.75;;;5.95;;
79064;SDS011;68469;51.502;7.462;2023-07-29T04:16:32;7.20;;;6.47;;
79064;SDS011;68469;51.502;7.462;2023-07-29T04:18:58;8.30;;;6.10;;
79064;SDS011;68469;51.502;7.462;2023-07-29T04:21:24;6.20;;;5.60;;
79064;SDS011;68469;51.502;7.462;2023-07-29T04:23:49;8.00;;;6.03;;
79064;SDS011;68469;51.502;7.462;2023-07-29T04:26:15;6.32;;;5.72;;
79064;SDS011;68469;51.502;7.462;2023-07-29T04:28:41;5.85;;;5.32;;
79064;SDS011;68469;51.502;7.462;2023-07-29T04:31:07;6.70;;;5.57;;
79064;SDS011;68469;51.502;7.462;2023-07-29T04:33:33;7.43;;;6.22;;
79064;SDS011;68469;51.502;7.462;2023-07-29T04:35:59;6.38;;;5.78;;
79064;SDS011;68469;51.502;7.462;2023-07-29T04:38:30;6.68;;;6.07;;
79064;SDS011;68469;51.502;7.462;2023-07-29T04:40:57;6.45;;;5.53;;
79064;SDS011;68469;51.502;7.462;2023-07-29T04:43:26;6.30;;;5.75;;
79064;SDS011;68469;51.502;7.462;2023-07-29T04:45:56;7.20;;;5.60;;
79064;SDS011;68469;51.502;7.462;2023-07-29T04:48:22;7.15;;;5.60;;
79064;SDS011;68469;51.502;7.462;2023-07-29T04:50:47;6.38;;;5.72;;
79064;SDS011;68469;51.502;7.462;2023-07-29T04:53:13;6.32;;;5.72;;
79064;SDS011;68469;51.502;7.462;2023-07-29T04:55:41;7.15;;;6.10;;
79064;SDS011;68469;51.502;7.462;2023-07-29T04:58:07;6.18;;;5.57;;
79064;SDS011;68469;51.502;7.462;2023-07-29T05:00:33;8.45;;;5.95;;
79064;SDS011;68469;51.502;7.462;2023-07-29T05:02:59;11.45;;;6.45;;
79064;SDS011;68469;51.502;7.462;2023-07-29T05:05:26;7.45;;;6.60;;
79064;SDS011;68469;51.502;7.462;2023-07-29T05:07:52;10.40;;;7.10;;
79064;SDS011;68469;51.502;7.462;2023-07-29T05:10:17;7.35;;;6.65;;
79064;SDS011;68469;51.502;7.462;2023-07-29T05:12:44;7.90;;;6.63;;
79064;SDS011;68469;51.502;7.462;2023-07-29T05:15:10;10.63;;;7.47;;
79064;SDS011;68469;51.502;7.462;2023-07-29T05:17:35;9.68;;;7.53;;
79064;SDS011;68469;51.502;7.462;2023-07-29T05:20:01;9.68;;;8.40;;
79064;SDS011;68469;51.502;7.462;2023-07-29T05:22:27;9.35;;;8.10;;
79064;SDS011;68469;51.502;7.462;2023-07-29T05:24:52;10.00;;;7.82;;
79064;SDS011;68469;51.502;7.462;2023-07-29T05:27:18;11.45;;;8.73;;
79064;SDS011;68469;51.502;7.462;2023-07-29T05:29:44;11.73;;;10.30;;
79064;SDS011;68469;51.502;7.462;2023-07-29T05:32:09;15.13;;;11.18;;
79064;SDS011;68469;51.502;7.462;2023-07-29T05:34:35;13.93;;;11.85;;
79064;SDS011;68469;51.502;7.462;2023-07-29T05:37:02;13.55;;;10.52;;
79064;SDS011;68469;51.502;7.462;2023-07-29T05:39:28;12.85;;;11.48;;
79064;SDS011;68469;51.502;7.462;2023-07-29T05:41:54;14.18;;;11.15;;
79064;SDS011;68469;51.502;7.462;2023-07-29T05:44:20;12.77;;;11.23;;
79064;SDS011;68469;51.502;7.462;2023-07-29T05:46:45;14.25;;;12.55;;
79064;SDS011;68469;51.502;7.462;2023-07-29T05:49:11;16.10;;;12.10;;
79064;SDS011;68469;51.502;7.462;2023-07-29T05:51:37;15.63;;;12.18;;
79064;SDS011;68469;51.502;7.462;2023-07-29T05:54:03;13.02;;;11.73;;
79064;SDS011;68469;51.502;7.462;2023-07-29T05:56:29;14.88;;;12.35;;
79064;SDS011;68469;51.502;7.462;2023-07-29T05:58:56;16.23;;;12.13;;
79064;SDS011;68469;51.502;7.462;2023-07-29T06:01:22;13.73;;;12.27;;
79064;SDS011;68469;51.502;7.462;2023-07-29T06:03:50;12.07;;;10.88;;
79064;SDS011;68469;51.502;7.462;2023-07-29T06:06:16;13.48;;;11.07;;
79064;SDS011;68469;51.502;7.462;2023-07-29T06:08:41;13.23;;;11.88;;
79064;SDS011;68469;51.502;7.462;2023-07-29T06:11:07;13.57;;;12.23;;
79064;SDS011;68469;51.502;7.462;2023-07-29T06:13:32;13.38;;;11.48;;
79064;SDS011;68469;51.502;7.462;2023-07-29T06:15:58;15.68;;;13.38;;
79064;SDS011;68469;51.502;7.462;2023-07-29T06:18:24;20.17;;;13.75;;
79064;SDS011;68469;51.502;7.462;2023-07-29T06:20:50;16.02;;;13.35;;
79064;SDS011;68469;51.502;7.462;2023-07-29T06:23:16;13.90;;;12.55;;
79064;SDS011;68469;51.502;7.462;2023-07-29T06:25:41;17.15;;;13.55;;
79064;SDS011;68469;51.502;7.462;2023-07-29T06:28:07;17.95;;;14.82;;
79064;SDS011;68469;51.502;7.462;2023-07-29T06:30:34;15.38;;;13.02;;
79064;SDS011;68469;51.502;7.462;2023-07-29T06:32:59;16.65;;;14.85;;
79064;SDS011;68469;51.502;7.462;2023-07-29T06:35:25;17.77;;;14.88;;
79064;SDS011;68469;51.502;7.462;2023-07-29T06:37:50;17.33;;;14.45;;
79064;SDS011;68469;51.502;7.462;2023-07-29T06:40:16;17.00;;;15.20;;
79064;SDS011;68469;51.502;7.462;2023-07-29T06:42:42;17.95;;;14.95;;
79064;SDS011;68469;51.502;7.462;2023-07-29T06:45:07;25.65;;;17.10;;
79064;SDS011;68469;51.502;7.462;2023-07-29T06:47:33;15.57;;;13.13;;
79064;SDS011;68469;51.502;7.462;2023-07-29T06:49:59;13.82;;;12.43;;
79064;SDS011;68469;51.502;7.462;2023-07-29T06:52:25;12.25;;;11.05;;
79064;SDS011;68469;51.502;7.462;2023-07-29T06:54:51;11.43;;;9.65;;
79064;SDS011;68469;51.502;7.462;2023-07-29T06:57:16;12.18;;;8.68;;
79064;SDS011;68469;51.502;7.462;2023-07-29T06:59:42;9.68;;;8.18;;
79064;SDS011;68469;51.502;7.462;2023-07-29T07:02:07;7.82;;;7.13;;
79064;SDS011;68469;51.502;7.462;2023-07-29T07:04:33;8.07;;;7.30;;
79064;SDS011;68469;51.502;7.462;2023-07-29T07:06:59;11.73;;;7.40;;
79064;SDS011;68469;51.502;7.462;2023-07-29T07:09:24;7.32;;;6.53;;
79064;SDS011;68469;51.502;7.462;2023-07-29T07:11:50;6.53;;;5.30;;
79064;SDS011;68469;51.502;7.462;2023-07-29T07:14:15;8.07;;;6.63;;
79064;SDS011;68469;51.502;7.462;2023-07-29T07:16:41;6.32;;;5.28;;
79064;SDS011;68469;51.502;7.462;2023-07-29T07:19:07;5.05;;;4.55;;
79064;SDS011;68469;51.502;7.462;2023-07-29T07:21:32;4.22;;;3.75;;
79064;SDS011;68469;51.502;7.462;2023-07-29T07:23:58;6.47;;;4.68;;
79064;SDS011;68469;51.502;7.462;2023-07-29T07:26:25;5.43;;;4.45;;
79064;SDS011;68469;51.502;7.462;2023-07-29T07:28:50;4.07;;;3.70;;
79064;SDS011;68469;51.502;7.462;2023-07-29T07:31:16;5.60;;;3.22;;
79064;SDS011;68469;51.502;7.462;2023-07-29T07:33:42;5.20;;;3.20;;
79064;SDS011;68469;51.502;7.462;2023-07-29T07:36:08;7.13;;;3.42;;
79064;SDS011;68469;51.502;7.462;2023-07-29T07:38:33;3.80;;;3.40;;
79064;SDS011;68469;51.502;7.462;2023-07-29T07:40:59;4.03;;;3.05;;
79064;SDS011;68469;51.502;7.462;2023-07-29T07:43:24;3.15;;;2.25;;
79064;SDS011;68469;51.502;7.462;2023-07-29T07:45:51;7.07;;;2.80;;
79064;SDS011;68469;51.502;7.462;2023-07-29T07:48:22;5.97;;;3.97;;
79064;SDS011;68469;51.502;7.462;2023-07-29T07:50:47;5.30;;;2.35;;
79064;SDS011;68469;51.502;7.462;2023-07-29T07:53:13;3.28;;;2.42;;
79064;SDS011;68469;51.502;7.462;2023-07-29T07:55:39;5.88;;;2.40;;
79064;SDS011;68469;51.502;7.462;2023-07-29T07:58:04;6.22;;;2.78;;
79064;SDS011;68469;51.502;7.462;2023-07-29T08:00:30;3.58;;;2.13;;
79064;SDS011;68469;51.502;7.462;2023-07-29T08:02:58;3.58;;;2.10;;
79064;SDS011;68469;51.502;7.462;2023-07-29T08:05:24;6.55;;;2.22;;
79064;SDS011;68469;51.502;7.462;2023-07-29T08:07:50;4.38;;;2.42;;
79064;SDS011;68469;51.502;7.462;2023-07-29T08:10:16;2.65;;;2.08;;
79064;SDS011;68469;51.502;7.462;2023-07-29T08:12:41;3.63;;;2.00;;
79064;SDS011;68469;51.502;7.462;2023-07-29T08:15:07;2.90;;;1.45;;
79064;SDS011;68469;51.502;7.462;2023-07-29T08:17:33;2.85;;;1.85;;
79064;SDS011;68469;51.502;7.462;2023-07-29T08:19:58;3.28;;;1.92;;
79064;SDS011;68469;51.502;7.462;2023-07-29T08:22:24;5.75;;;1.83;;
79064;SDS011;68469;51.502;7.462;2023-07-29T08:24:49;2.35;;;1.70;;
79064;SDS011;68469;51.502;7.462;2023-07-29T08:27:15;2.67;;;1.48;;
79064;SDS011;68469;51.502;7.462;2023-07-29T08:29:41;2.33;;;1.55;;
79064;SDS011;68469;51.502;7.462;2023-07-29T08:32:06;3.72;;;1.58;;
79064;SDS011;68469;51.502;7.462;2023-07-29T08:34:32;2.20;;;1.25;;
79064;SDS011;68469;51.502;7.462;2023-07-29T08:36:58;2.10;;;1.40;;
79064;SDS011;68469;51.502;7.462;2023-07-29T08:39:25;4.00;;;1.63;;
79064;SDS011;68469;51.502;7.462;2023-07-29T08:44:22;2.50;;;1.50;;
79064;SDS011;68469;51.502;7.462;2023-07-29T08:46:49;3.05;;;1.42;;
79064;SDS011;68469;51.502;7.462;2023-07-29T08:49:16;3.58;;;1.50;;
79064;SDS011;68469;51.502;7.462;2023-07-29T08:51:44;1.60;;;1.50;;
79064;SDS011;68469;51.502;7.462;2023-07-29T08:54:13;2.35;;;1.40;;
79064;SDS011;68469;51.502;7.462;2023-07-29T08:56:43;3.15;;;2.53;;
79064;SDS011;68469;51.502;7.462;2023-07-29T08:59:09;7.57;;;4.20;;
79064;SDS011;68469;51.502;7.462;2023-07-29T09:01:38;4.00;;;2.50;;
79064;SDS011;68469;51.502;7.462;2023-07-29T09:04:04;4.28;;;1.80;;
79064;SDS011;68469;51.502;7.462;2023-07-29T09:06:31;3.55;;;1.63;;
79064;SDS011;68469;51.502;7.462;2023-07-29T09:08:57;2.97;;;1.40;;
79064;SDS011;68469;51.502;7.462;2023-07-29T09:11:24;1.98;;;1.73;;
79064;SDS011;68469;51.502;7.462;2023-07-29T09:13:50;1.77;;;1.13;;
79064;SDS011;68469;51.502;7.462;2023-07-29T09:16:16;1.75;;;0.90;;
79064;SDS011;68469;51.502;7.462;2023-07-29T09:18:41;3.72;;;1.17;;
79064;SDS011;68469;51.502;7.462;2023-07-29T09:21:07;3.50;;;1.10;;
79064;SDS011;68469;51.502;7.462;2023-07-29T09:23:40;3.83;;;1.00;;
79064;SDS011;68469;51.502;7.462;2023-07-29T09:26:09;3.10;;;1.08;;
79064;SDS011;68469;51.502;7.462;2023-07-29T09:28:36;1.25;;;0.90;;
79064;SDS011;68469;51.502;7.462;2023-07-29T09:31:03;1.65;;;1.27;;
79064;SDS011;68469;51.502;7.462;2023-07-29T09:33:32;1.80;;;0.90;;
79064;SDS011;68469;51.502;7.462;2023-07-29T09:36:07;2.17;;;1.27;;
79064;SDS011;68469;51.502;7.462;2023-07-29T09:38:34;2.35;;;0.98;;
79064;SDS011;68469;51.502;7.462;2023-07-29T09:41:00;3.67;;;0.95;;
79064;SDS011;68469;51.502;7.462;2023-07-29T09:43:30;2.83;;;0.90;;
79064;SDS011;68469;51.502;7.462;2023-07-29T09:46:02;1.38;;;1.20;;
79064;SDS011;68469;51.502;7.462;2023-07-29T09:48:33;1.98;;;1.15;;
79064;SDS011;68469;51.502;7.462;2023-07-29T09:53:39;2.42;;;0.98;;
79064;SDS011;68469;51.502;7.462;2023-07-29T09:56:12;1.65;;;1.08;;
79064;SDS011;68469;51.502;7.462;2023-07-29T09:58:38;4.28;;;2.85;;
79064;SDS011;68469;51.502;7.462;2023-07-29T10:01:07;1.08;;;0.95;;
79064;SDS011;68469;51.502;7.462;2023-07-29T10:03:34;1.30;;;1.00;;
79064;SDS011;68469;51.502;7.462;2023-07-29T10:06:02;5.47;;;1.00;;
79064;SDS011;68469;51.502;7.462;2023-07-29T10:08:29;2.88;;;0.80;;
79064;SDS011;68469;51.502;7.462;2023-07-29T10:11:01;1.40;;;0.90;;
79064;SDS011;68469;51.502;7.462;2023-07-29T10:13:27;2.83;;;1.30;;
79064;SDS011;68469;51.502;7.462;2023-07-29T10:15:56;1.90;;;0.80;;
79064;SDS011;68469;51.502;7.462;2023-07-29T10:18:22;1.48;;;1.00;;
79064;SDS011;68469;51.502;7.462;2023-07-29T10:20:51;2.13;;;1.10;;
79064;SDS011;68469;51.502;7.462;2023-07-29T10:23:19;4.15;;;1.20;;
79064;SDS011;68469;51.502;7.462;2023-07-29T10:25:49;1.60;;;1.00;;
79064;SDS011;68469;51.502;7.462;2023-07-29T10:28:20;2.30;;;1.20;;
79064;SDS011;68469;51.502;7.462;2023-07-29T10:30:48;1.88;;;0.93;;
79064;SDS011;68469;51.502;7.462;2023-07-29T10:33:15;3.13;;;1.10;;
79064;SDS011;68469;51.502;7.462;2023-07-29T10:35:41;1.25;;;0.93;;
79064;SDS011;68469;51.502;7.462;2023-07-29T10:38:07;1.85;;;1.25;;
79064;SDS011;68469;51.502;7.462;2023-07-29T10:45:53;6.10;;;1.00;;
79064;SDS011;68469;51.502;7.462;2023-07-29T10:53:56;1.08;;;0.80;;
79064;SDS011;68469;51.502;7.462;2023-07-29T10:56:29;4.15;;;1.17;;
79064;SDS011;68469;51.502;7.462;2023-07-29T11:01:53;1.23;;;0.85;;
79064;SDS011;68469;51.502;7.462;2023-07-29T11:04:22;1.48;;;0.80;;
79064;SDS011;68469;51.502;7.462;2023-07-29T11:07:01;2.20;;;0.80;;
79064;SDS011;68469;51.502;7.462;2023-07-29T11:14:57;3.05;;;0.60;;
79064;SDS011;68469;51.502;7.462;2023-07-29T11:20:13;2.25;;;0.70;;
79064;SDS011;68469;51.502;7.462;2023-07-29T11:22:40;3.53;;;0.80;;
79064;SDS011;68469;51.502;7.462;2023-07-29T11:25:06;1.75;;;0.80;;
79064;SDS011;68469;51.502;7.462;2023-07-29T11:27:34;1.88;;;0.70;;
79064;SDS011;68469;51.502;7.462;2023-07-29T11:30:01;1.83;;;0.68;;
79064;SDS011;68469;51.502;7.462;2023-07-29T11:32:30;1.45;;;0.73;;
79064;SDS011;68469;51.502;7.462;2023-07-29T11:34:56;1.90;;;0.80;;
79064;SDS011;68469;51.502;7.462;2023-07-29T11:37:22;0.93;;;0.60;;
79064;SDS011;68469;51.502;7.462;2023-07-29T11:39:47;4.05;;;0.77;;
79064;SDS011;68469;51.502;7.462;2023-07-29T11:42:13;3.08;;;1.10;;
79064;SDS011;68469;51.502;7.462;2023-07-29T11:44:40;1.83;;;0.90;;
79064;SDS011;68469;51.502;7.462;2023-07-29T11:47:06;2.25;;;0.90;;
79064;SDS011;68469;51.502;7.462;2023-07-29T11:49:33;1.30;;;0.80;;
79064;SDS011;68469;51.502;7.462;2023-07-29T11:51:59;1.98;;;1.02;;
79064;SDS011;68469;51.502;7.462;2023-07-29T11:54:25;1.33;;;0.77;;
79064;SDS011;68469;51.502;7.462;2023-07-29T11:56:51;2.22;;;1.95;;
79064;SDS011;68469;51.502;7.462;2023-07-29T11:59:17;9.32;;;5.53;;
79064;SDS011;68469;51.502;7.462;2023-07-29T12:01:43;2.25;;;1.02;;
79064;SDS011;68469;51.502;7.462;2023-07-29T12:04:10;1.40;;;0.90;;
79064;SDS011;68469;51.502;7.462;2023-07-29T12:06:36;3.45;;;1.05;;
79064;SDS011;68469;51.502;7.462;2023-07-29T12:09:03;3.75;;;0.90;;
79064;SDS011;68469;51.502;7.462;2023-07-29T12:11:29;2.08;;;0.80;;
79064;SDS011;68469;51.502;7.462;2023-07-29T12:13:55;1.85;;;0.63;;
79064;SDS011;68469;51.502;7.462;2023-07-29T12:16:20;1.83;;;1.02;;
79064;SDS011;68469;51.502;7.462;2023-07-29T12:18:46;3.38;;;1.02;;
79064;SDS011;68469;51.502;7.462;2023-07-29T12:21:14;1.20;;;0.75;;
79064;SDS011;68469;51.502;7.462;2023-07-29T12:23:39;1.95;;;1.13;;
79064;SDS011;68469;51.502;7.462;2023-07-29T12:26:05;1.67;;;1.02;;
79064;SDS011;68469;51.502;7.462;2023-07-29T12:28:31;1.88;;;0.90;;
79064;SDS011;68469;51.502;7.462;2023-07-29T12:30:57;1.13;;;0.80;;
79064;SDS011;68469;51.502;7.462;2023-07-29T12:33:32;3.80;;;0.90;;
79064;SDS011;68469;51.502;7.462;2023-07-29T12:36:02;1.40;;;0.88;;
79064;SDS011;68469;51.502;7.462;2023-07-29T12:38:28;3.85;;;0.93;;
79064;SDS011;68469;51.502;7.462;2023-07-29T12:40:54;1.48;;;0.95;;
79064;SDS011;68469;51.502;7.462;2023-07-29T12:43:21;1.27;;;1.13;;
79064;SDS011;68469;51.502;7.462;2023-07-29T12:45:49;2.13;;;1.15;;
79064;SDS011;68469;51.502;7.462;2023-07-29T12:48:14;1.88;;;0.90;;
79064;SDS011;68469;51.502;7.462;2023-07-29T12:50:40;1.80;;;1.10;;
79064;SDS011;68469;51.502;7.462;2023-07-29T12:53:06;1.13;;;0.70;;
79064;SDS011;68469;51.502;7.462;2023-07-29T12:55:35;2.70;;;1.05;;
79064;SDS011;68469;51.502;7.462;2023-07-29T12:58:00;4.05;;;0.90;;
79064;SDS011;68469;51.502;7.462;2023-07-29T13:00:27;1.75;;;1.20;;
79064;SDS011;68469;51.502;7.462;2023-07-29T13:02:53;1.33;;;0.93;;
79064;SDS011;68469;51.502;7.462;2023-07-29T13:05:19;1.63;;;1.20;;
79064;SDS011;68469;51.502;7.462;2023-07-29T13:07:45;2.92;;;1.60;;
79064;SDS011;68469;51.502;7.462;2023-07-29T13:10:10;4.07;;;1.35;;
79064;SDS011;68469;51.502;7.462;2023-07-29T13:12:36;1.85;;;1.05;;
79064;SDS011;68469;51.502;7.462;2023-07-29T13:15:02;5.13;;;1.40;;
79064;SDS011;68469;51.502;7.462;2023-07-29T13:17:28;3.03;;;1.33;;
79064;SDS011;68469;51.502;7.462;2023-07-29T13:19:53;2.90;;;1.20;;
79064;SDS011;68469;51.502;7.462;2023-07-29T13:22:19;2.22;;;1.10;;
79064;SDS011;68469;51.502;7.462;2023-07-29T13:24:45;1.13;;;0.90;;
79064;SDS011;68469;51.502;7.462;2023-07-29T13:27:11;3.28;;;1.20;;
79064;SDS011;68469;51.502;7.462;2023-07-29T13:29:37;2.08;;;1.40;;
79064;SDS011;68469;51.502;7.462;2023-07-29T13:32:02;2.20;;;1.15;;
79064;SDS011;68469;51.502;7.462;2023-07-29T13:34:29;2.25;;;1.35;;
79064;SDS011;68469;51.502;7.462;2023-07-29T13:36:55;3.00;;;1.67;;
79064;SDS011;68469;51.502;7.462;2023-07-29T13:39:21;3.28;;;1.02;;
79064;SDS011;68469;51.502;7.462;2023-07-29T13:41:46;2.78;;;1.27;;
79064;SDS011;68469;51.502;7.462;2023-07-29T13:44:12;2.05;;;1.30;;
79064;SDS011;68469;51.502;7.462;2023-07-29T13:46:37;2.15;;;1.27;;
79064;SDS011;68469;51.502;7.462;2023-07-29T13:49:03;3.30;;;1.20;;
79064;SDS011;68469;51.502;7.462;2023-07-29T13:51:28;2.60;;;1.33;;
79064;SDS011;68469;51.502;7.462;2023-07-29T13:53:54;1.83;;;1.45;;
79064;SDS011;68469;51.502;7.462;2023-07-29T13:56:21;3.80;;;1.23;;
79064;SDS011;68469;51.502;7.462;2023-07-29T13:58:47;2.42;;;1.30;;
79064;SDS011;68469;51.502;7.462;2023-07-29T14:01:12;3.22;;;2.13;;
79064;SDS011;68469;51.502;7.462;2023-07-29T14:03:38;3.45;;;1.30;;
79064;SDS011;68469;51.502;7.462;2023-07-29T14:06:03;7.05;;;3.03;;
79064;SDS011;68469;51.502;7.462;2023-07-29T14:08:29;2.80;;;2.17;;
79064;SDS011;68469;51.502;7.462;2023-07-29T14:10:55;5.38;;;3.60;;
79064;SDS011;68469;51.502;7.462;2023-07-29T14:13:21;3.70;;;1.60;;
79064;SDS011;68469;51.502;7.462;2023-07-29T14:15:46;3.35;;;1.90;;
79064;SDS011;68469;51.502;7.462;2023-07-29T14:18:12;2.33;;;1.40;;
79064;SDS011;68469;51.502;7.462;2023-07-29T14:20:38;2.92;;;1.40;;
79064;SDS011;68469;51.502;7.462;2023-07-29T14:23:04;2.20;;;1.17;;
79064;SDS011;68469;51.502;7.462;2023-07-29T14:25:30;1.65;;;1.20;;
79064;SDS011;68469;51.502;7.462;2023-07-29T14:27:55;2.60;;;1.38;;
79064;SDS011;68469;51.502;7.462;2023-07-29T14:30:21;1.85;;;1.23;;
79064;SDS011;68469;51.502;7.462;2023-07-29T14:32:46;4.60;;;1.48;;
79064;SDS011;68469;51.502;7.462;2023-07-29T14:35:13;2.40;;;1.55;;
79064;SDS011;68469;51.502;7.462;2023-07-29T14:37:38;4.57;;;1.80;;
79064;SDS011;68469;51.502;7.462;2023-07-29T14:40:04;2.70;;;1.77;;
79064;SDS011;68469;51.502;7.462;2023-07-29T14:42:30;4.10;;;1.77;;
79064;SDS011;68469;51.502;7.462;2023-07-29T14:44:56;2.65;;;2.20;;
79064;SDS011;68469;51.502;7.462;2023-07-29T14:47:22;3.50;;;1.90;;
79064;SDS011;68469;51.502;7.462;2023-07-29T14:49:48;3.55;;;1.77;;
79064;SDS011;68469;51.502;7.462;2023-07-29T14:52:13;4.88;;;2.05;;
79064;SDS011;68469;51.502;7.462;2023-07-29T14:54:39;3.17;;;2.10;;
79064;SDS011;68469;51.502;7.462;2023-07-29T14:57:06;2.85;;;1.80;;
79064;SDS011;68469;51.502;7.462;2023-07-29T14:59:32;2.28;;;1.80;;
79064;SDS011;68469;51.502;7.462;2023-07-29T15:01:58;4.07;;;1.80;;
79064;SDS011;68469;51.502;7.462;2023-07-29T15:04:24;4.10;;;1.48;;
79064;SDS011;68469;51.502;7.462;2023-07-29T15:06:49;5.40;;;1.95;;
79064;SDS011;68469;51.502;7.462;2023-07-29T15:09:15;3.75;;;1.67;;
79064;SDS011;68469;51.502;7.462;2023-07-29T15:11:41;3.22;;;1.60;;
79064;SDS011;68469;51.502;7.462;2023-07-29T15:14:06;2.47;;;1.48;;